createdAt,value
2018-09-11T00:01:32.043Z,2.90
2018-09-11T00:04:00.164Z,2.27
2018-09-11T00:06:28.256Z,2.80
2018-09-11T00:08:56.355Z,2.77
2018-09-11T00:11:24.460Z,2.63
2018-09-11T00:13:52.530Z,2.60
2018-09-11T00:16:20.631Z,2.97
2018-09-11T00:18:48.707Z,2.57
2018-09-11T00:21:16.896Z,3.10
2018-09-11T00:23:44.971Z,2.80
2018-09-11T00:26:13.077Z,3.33
2018-09-11T00:28:41.220Z,3.20
2018-09-11T00:31:09.288Z,3.55
2018-09-11T00:33:37.414Z,2.80
2018-09-11T00:36:05.529Z,3.30
2018-09-11T00:38:33.626Z,2.97
2018-09-11T00:43:25.105Z,3.20
2018-09-11T00:45:53.267Z,3.17
2018-09-11T00:48:21.339Z,2.53
2018-09-11T00:50:49.419Z,3.50
2018-09-11T00:53:18.154Z,3.00
2018-09-11T00:55:46.226Z,3.10
2018-09-11T00:58:14.330Z,3.13
2018-09-11T01:00:43.173Z,3.03
2018-09-11T01:03:11.251Z,3.00
2018-09-11T01:05:39.335Z,3.43
2018-09-11T01:08:07.494Z,3.07
2018-09-11T01:10:35.619Z,3.57
2018-09-11T01:13:03.700Z,3.30
2018-09-11T01:15:31.801Z,3.53
2018-09-11T01:17:59.889Z,3.37
2018-09-11T01:20:27.972Z,3.20
2018-09-11T01:22:56.058Z,3.63
2018-09-11T01:25:24.151Z,3.70
2018-09-11T01:27:52.247Z,3.57
2018-09-11T01:30:21.737Z,4.10
2018-09-11T01:32:50.787Z,4.10
2018-09-11T01:35:19.147Z,3.60
2018-09-11T01:37:47.440Z,3.27
2018-09-11T01:40:15.584Z,2.83
2018-09-11T01:42:43.691Z,3.67
2018-09-11T01:45:11.767Z,3.40
2018-09-11T01:47:39.887Z,3.40
2018-09-11T01:50:07.973Z,3.43
2018-09-11T01:52:36.075Z,3.70
2018-09-11T01:55:04.232Z,3.20
2018-09-11T01:57:32.310Z,3.50
2018-09-11T02:00:00.429Z,3.70
2018-09-11T02:02:28.567Z,3.93
2018-09-11T02:04:56.650Z,3.30
2018-09-11T02:07:24.751Z,3.43
2018-09-11T02:09:52.838Z,4.03
2018-09-11T02:12:20.945Z,3.93
2018-09-11T02:14:49.096Z,3.50
2018-09-11T02:17:17.150Z,4.40
2018-09-11T02:19:45.255Z,3.83
2018-09-11T02:22:13.322Z,3.90
2018-09-11T02:24:41.454Z,4.33
2018-09-11T02:27:09.542Z,4.40
2018-09-11T02:29:37.624Z,5.33
2018-09-11T02:32:05.747Z,4.13
2018-09-11T02:34:33.830Z,4.33
2018-09-11T02:37:01.931Z,4.27
2018-09-11T02:39:30.038Z,4.47
2018-09-11T02:41:58.118Z,4.33
2018-09-11T02:44:26.282Z,4.27
2018-09-11T02:46:54.379Z,3.97
2018-09-11T02:49:22.527Z,4.27
2018-09-11T02:51:50.594Z,4.43
2018-09-11T02:54:18.663Z,4.20
2018-09-11T02:56:46.742Z,4.37
2018-09-11T02:59:14.839Z,4.50
2018-09-11T03:01:43.040Z,4.60
2018-09-11T03:04:11.112Z,4.53
2018-09-11T03:06:39.188Z,4.50
2018-09-11T03:09:07.379Z,4.40
2018-09-11T03:11:35.564Z,5.10
2018-09-11T03:14:03.654Z,4.80
2018-09-11T03:16:31.794Z,5.13
2018-09-11T03:18:59.983Z,4.70
2018-09-11T03:21:28.028Z,5.47
2018-09-11T03:23:56.124Z,4.87
2018-09-11T03:26:24.226Z,5.93
2018-09-11T03:28:52.340Z,4.00
2018-09-11T03:31:20.431Z,4.67
2018-09-11T03:33:48.516Z,4.03
2018-09-11T03:36:16.590Z,4.23
2018-09-11T03:38:44.668Z,4.27
2018-09-11T03:41:12.730Z,4.50
2018-09-11T03:43:40.851Z,4.37
2018-09-11T03:46:09.054Z,4.30
2018-09-11T03:48:37.159Z,4.80
2018-09-11T03:51:05.333Z,4.50
2018-09-11T03:53:33.396Z,4.90
2018-09-11T03:56:01.472Z,4.27
2018-09-11T03:58:29.615Z,4.47
2018-09-11T04:00:57.718Z,4.50
2018-09-11T04:03:25.829Z,4.07
2018-09-11T04:05:53.906Z,4.63
2018-09-11T04:08:22.036Z,4.07
2018-09-11T04:10:50.128Z,5.00
2018-09-11T04:13:18.207Z,4.53
2018-09-11T04:15:46.318Z,4.93
2018-09-11T04:18:14.406Z,5.10
2018-09-11T04:20:42.515Z,4.60
2018-09-11T04:23:10.603Z,4.83
2018-09-11T04:25:38.738Z,4.57
2018-09-11T04:28:06.786Z,5.37
2018-09-11T04:30:34.863Z,5.00
2018-09-11T04:33:03.283Z,5.13
2018-09-11T04:35:31.419Z,5.03
2018-09-11T04:37:59.531Z,4.80
2018-09-11T04:40:27.718Z,5.97
2018-09-11T04:42:55.904Z,4.83
2018-09-11T04:45:23.985Z,4.70
2018-09-11T04:47:52.106Z,6.07
2018-09-11T04:50:20.185Z,5.37
2018-09-11T04:52:48.270Z,5.37
2018-09-11T04:55:16.339Z,5.27
2018-09-11T04:57:44.464Z,5.27
2018-09-11T05:00:12.591Z,4.97
2018-09-11T05:02:40.663Z,4.80
2018-09-11T05:05:08.765Z,4.77
2018-09-11T05:07:36.856Z,4.93
2018-09-11T05:10:05.010Z,4.90
2018-09-11T05:12:33.094Z,4.87
2018-09-11T05:15:01.201Z,5.07
2018-09-11T05:17:29.330Z,5.23
2018-09-11T05:19:57.411Z,5.00
2018-09-11T05:22:25.495Z,4.50
2018-09-11T05:24:53.566Z,4.77
2018-09-11T05:27:21.680Z,4.70
2018-09-11T05:29:49.759Z,5.03
2018-09-11T05:32:17.962Z,4.93
2018-09-11T05:34:46.094Z,4.83
2018-09-11T05:37:14.188Z,5.10
2018-09-11T05:39:42.287Z,4.87
2018-09-11T05:42:10.390Z,4.27
2018-09-11T05:44:38.465Z,4.67
2018-09-11T05:47:06.554Z,4.80
2018-09-11T05:49:34.639Z,4.67
2018-09-11T05:52:02.699Z,5.00
2018-09-11T05:54:30.873Z,4.67
2018-09-11T05:56:58.950Z,5.23
2018-09-11T05:59:27.061Z,4.40
2018-09-11T06:01:55.155Z,5.83
2018-09-11T06:04:23.243Z,4.87
2018-09-11T06:06:51.374Z,4.70
2018-09-11T06:09:19.458Z,4.97
2018-09-11T06:11:47.667Z,3.87
2018-09-11T06:14:17.500Z,5.27
2018-09-11T06:16:45.567Z,5.20
2018-09-11T06:19:13.666Z,4.30
2018-09-11T06:21:41.824Z,6.12
2018-09-11T06:24:09.986Z,5.37
2018-09-11T06:26:38.061Z,6.17
2018-09-11T06:29:06.171Z,4.57
2018-09-11T06:31:34.341Z,4.40
2018-09-11T06:34:02.585Z,4.47
2018-09-11T06:36:30.967Z,4.40
2018-09-11T06:38:59.143Z,5.17
2018-09-11T06:41:27.220Z,4.70
2018-09-11T06:43:55.952Z,4.67
2018-09-11T06:46:24.091Z,4.53
2018-09-11T06:48:52.190Z,4.10
2018-09-11T06:51:20.299Z,4.50
2018-09-11T06:53:48.370Z,5.33
2018-09-11T06:56:16.550Z,5.03
2018-09-11T06:58:44.626Z,4.47
2018-09-11T07:01:12.723Z,5.30
2018-09-11T07:03:40.800Z,4.53
2018-09-11T07:06:08.904Z,4.87
2018-09-11T07:08:37.056Z,4.77
2018-09-11T07:11:05.279Z,5.20
2018-09-11T07:13:33.390Z,5.10
2018-09-11T07:16:01.492Z,5.30
2018-09-11T07:18:29.592Z,5.10
2018-09-11T07:20:57.733Z,4.80
2018-09-11T07:23:25.902Z,5.40
2018-09-11T07:25:54.039Z,4.83
2018-09-11T07:28:22.135Z,7.05
2018-09-11T07:30:50.304Z,5.83
2018-09-11T07:33:18.530Z,5.23
2018-09-11T07:35:46.670Z,6.37
2018-09-11T07:38:15.742Z,4.87
2018-09-11T07:40:43.922Z,5.40
2018-09-11T07:43:12.022Z,5.43
2018-09-11T07:45:40.094Z,5.07
2018-09-11T07:48:08.299Z,5.13
2018-09-11T07:50:36.470Z,4.70
2018-09-11T07:53:04.577Z,5.27
2018-09-11T07:55:32.648Z,5.10
2018-09-11T07:58:00.895Z,4.90
2018-09-11T08:00:29.024Z,4.70
2018-09-11T08:02:57.156Z,5.27
2018-09-11T08:05:25.272Z,4.93
2018-09-11T08:07:53.395Z,5.30
2018-09-11T08:10:21.478Z,4.20
2018-09-11T08:12:49.598Z,4.53
2018-09-11T08:15:17.815Z,4.50
2018-09-11T08:17:45.917Z,4.28
2018-09-11T08:20:14.029Z,4.50
2018-09-11T08:22:42.145Z,4.95
2018-09-11T08:25:10.247Z,4.10
2018-09-11T08:27:38.368Z,4.15
2018-09-11T08:30:06.621Z,4.17
2018-09-11T08:32:34.752Z,5.17
2018-09-11T08:35:02.920Z,4.65
2018-09-11T08:37:31.035Z,4.60
2018-09-11T08:39:59.091Z,4.60
2018-09-11T08:42:27.158Z,3.72
2018-09-11T08:44:55.248Z,4.72
2018-09-11T08:47:23.356Z,4.15
2018-09-11T08:49:51.449Z,4.30
2018-09-11T08:52:19.597Z,3.70
2018-09-11T08:54:47.690Z,3.58
2018-09-11T08:57:15.869Z,4.10
2018-09-11T08:59:44.019Z,3.85
2018-09-11T09:02:12.099Z,3.98
2018-09-11T09:04:40.202Z,4.15
2018-09-11T09:07:08.334Z,3.85
2018-09-11T09:09:36.466Z,3.62
2018-09-11T09:12:04.583Z,4.62
2018-09-11T09:14:32.655Z,3.55
2018-09-11T09:17:00.768Z,3.85
2018-09-11T09:19:28.867Z,4.03
2018-09-11T09:21:57.042Z,3.77
2018-09-11T09:24:25.162Z,3.55
2018-09-11T09:26:53.243Z,4.20
2018-09-11T09:29:21.325Z,3.25
2018-09-11T09:31:49.419Z,4.12
2018-09-11T09:34:17.487Z,3.50
2018-09-11T09:36:45.663Z,4.25
2018-09-11T09:39:13.712Z,3.50
2018-09-11T09:41:41.923Z,3.15
2018-09-11T09:44:10.011Z,3.58
2018-09-11T09:46:38.119Z,3.35
2018-09-11T09:49:06.284Z,4.00
2018-09-11T09:51:34.375Z,3.62
2018-09-11T09:54:02.535Z,3.85
2018-09-11T09:56:30.703Z,3.80
2018-09-11T09:58:58.823Z,4.05
2018-09-11T10:01:32.524Z,3.55
2018-09-11T10:04:00.670Z,3.42
2018-09-11T10:06:28.763Z,3.72
2018-09-11T10:08:56.939Z,3.98
2018-09-11T10:11:25.165Z,4.37
2018-09-11T10:13:53.272Z,3.95
2018-09-11T10:16:21.450Z,4.03
2018-09-11T10:18:49.556Z,3.50
2018-09-11T10:21:17.710Z,3.95
2018-09-11T10:23:45.818Z,3.70
2018-09-11T10:26:14.011Z,3.70
2018-09-11T10:28:42.133Z,2.70
2018-09-11T10:31:10.234Z,3.15
2018-09-11T10:33:38.387Z,3.10
2018-09-11T10:36:06.453Z,3.80
2018-09-11T10:38:34.659Z,2.98
2018-09-11T10:41:02.774Z,2.55
2018-09-11T10:43:30.922Z,3.35
2018-09-11T10:45:59.085Z,2.90
2018-09-11T10:48:27.162Z,2.77
2018-09-11T10:50:55.274Z,2.55
2018-09-11T10:53:23.399Z,2.27
2018-09-11T10:55:51.519Z,2.75
2018-09-11T10:58:19.671Z,2.37
2018-09-11T11:00:47.833Z,2.83
2018-09-11T11:03:15.984Z,2.65
2018-09-11T11:05:44.079Z,3.15
2018-09-11T11:08:12.231Z,2.60
2018-09-11T11:10:40.371Z,2.60
2018-09-11T11:13:08.655Z,2.58
2018-09-11T11:15:36.828Z,2.20
2018-09-11T11:18:05.199Z,2.62
2018-09-11T11:20:33.293Z,2.80
2018-09-11T11:23:01.420Z,2.20
2018-09-11T11:25:29.529Z,2.37
2018-09-11T11:27:57.645Z,2.90
2018-09-11T11:30:29.420Z,3.10
2018-09-11T11:32:57.524Z,2.75
2018-09-11T11:35:25.819Z,2.50
2018-09-11T11:37:53.951Z,2.87
2018-09-11T11:40:22.103Z,2.90
2018-09-11T11:42:50.343Z,2.90
2018-09-11T11:45:18.435Z,2.85
2018-09-11T11:47:46.542Z,3.15
2018-09-11T11:50:14.669Z,3.72
2018-09-11T11:52:42.807Z,3.77
2018-09-11T11:55:11.047Z,3.30
2018-09-11T11:57:39.088Z,3.10
2018-09-11T12:00:07.175Z,3.40
2018-09-11T12:02:35.361Z,2.80
2018-09-11T12:05:03.517Z,2.83
2018-09-11T12:07:31.755Z,2.77
2018-09-11T12:09:59.940Z,3.12
2018-09-11T12:12:28.175Z,2.90
2018-09-11T12:14:56.268Z,2.30
2018-09-11T12:17:24.370Z,3.50
2018-09-11T12:19:52.479Z,3.60
2018-09-11T12:22:20.564Z,3.10
2018-09-11T12:24:48.883Z,3.10
2018-09-11T12:27:16.963Z,2.47
2018-09-11T12:29:45.063Z,2.95
2018-09-11T12:32:13.353Z,2.40
2018-09-11T12:34:41.580Z,2.90
2018-09-11T12:37:09.698Z,2.52
2018-09-11T12:39:37.811Z,2.33
2018-09-11T12:42:05.890Z,2.25
2018-09-11T12:44:35.023Z,2.70
2018-09-11T12:47:03.322Z,2.77
2018-09-11T12:49:31.283Z,3.17
2018-09-11T12:51:59.359Z,2.77
2018-09-11T12:54:28.996Z,3.05
2018-09-11T12:56:57.080Z,2.27
2018-09-11T12:59:25.255Z,2.65
2018-09-11T13:01:53.387Z,2.22
2018-09-11T13:04:21.486Z,2.40
2018-09-11T13:06:49.570Z,2.45
2018-09-11T13:09:17.789Z,1.85
2018-09-11T13:11:45.838Z,2.45
2018-09-11T13:14:14.143Z,2.65
2018-09-11T13:16:42.520Z,2.02
2018-09-11T13:19:10.587Z,2.75
2018-09-11T13:21:38.712Z,2.25
2018-09-11T13:24:06.884Z,2.70
2018-09-11T13:26:35.007Z,2.08
2018-09-11T13:29:03.115Z,1.75
2018-09-11T13:31:31.262Z,2.35
2018-09-11T13:33:59.356Z,2.00
2018-09-11T13:36:27.442Z,2.08
2018-09-11T13:38:55.543Z,2.12
2018-09-11T13:41:23.655Z,2.08
2018-09-11T13:43:51.799Z,2.10
2018-09-11T13:46:19.886Z,2.37
2018-09-11T13:48:47.964Z,2.98
2018-09-11T13:51:16.063Z,2.20
2018-09-11T13:53:44.198Z,1.72
2018-09-11T13:56:12.412Z,1.70
2018-09-11T13:58:40.503Z,2.00
2018-09-11T14:01:08.796Z,1.82
2018-09-11T14:03:36.931Z,1.72
2018-09-11T14:06:05.817Z,1.70
2018-09-11T14:08:34.230Z,1.87
2018-09-11T14:11:02.377Z,1.70
2018-09-11T14:13:30.524Z,2.20
2018-09-11T14:15:58.675Z,1.92
2018-09-11T14:18:26.831Z,1.70
2018-09-11T14:20:54.981Z,1.92
2018-09-11T14:23:23.085Z,2.15
2018-09-11T14:25:51.245Z,2.10
2018-09-11T14:28:19.328Z,2.22
2018-09-11T14:30:47.432Z,1.90
2018-09-11T14:33:15.767Z,2.08
2018-09-11T14:35:43.851Z,2.52
2018-09-11T14:38:11.944Z,2.25
2018-09-11T14:40:40.079Z,1.80
2018-09-11T14:43:08.231Z,1.72
2018-09-11T14:45:36.343Z,1.72
2018-09-11T14:48:04.758Z,2.20
2018-09-11T14:50:32.976Z,1.80
2018-09-11T14:53:01.090Z,1.92
2018-09-11T14:55:29.325Z,2.20
2018-09-11T14:57:57.415Z,1.90
2018-09-11T15:00:25.658Z,1.98
2018-09-11T15:02:53.829Z,1.77
2018-09-11T15:05:21.926Z,2.05
2018-09-11T15:07:50.055Z,1.77
2018-09-11T15:10:18.147Z,2.17
2018-09-11T15:12:46.223Z,2.00
2018-09-11T15:15:14.399Z,2.08
2018-09-11T15:17:42.592Z,1.90
2018-09-11T15:20:10.675Z,2.20
2018-09-11T15:22:38.868Z,2.10
2018-09-11T15:25:06.904Z,1.85
2018-09-11T15:27:35.016Z,2.30
2018-09-11T15:30:03.214Z,2.75
2018-09-11T15:32:31.252Z,2.37
2018-09-11T15:34:59.359Z,2.15
2018-09-11T15:37:29.550Z,2.33
2018-09-11T15:39:58.205Z,2.00
2018-09-11T15:42:26.378Z,2.40
2018-09-11T15:44:54.476Z,2.50
2018-09-11T15:47:22.603Z,2.80
2018-09-11T15:49:50.806Z,2.22
2018-09-11T15:52:18.983Z,2.33
2018-09-11T15:54:47.157Z,2.35
2018-09-11T15:57:15.277Z,2.33
2018-09-11T15:59:43.403Z,1.95
2018-09-11T16:02:11.500Z,1.80
2018-09-11T16:04:39.598Z,2.30
2018-09-11T16:07:07.877Z,2.37
2018-09-11T16:09:35.920Z,2.67
2018-09-11T16:12:03.992Z,2.30
2018-09-11T16:14:32.098Z,2.40
2018-09-11T16:17:00.231Z,2.55
2018-09-11T16:19:28.327Z,2.00
2018-09-11T16:21:56.450Z,2.00
2018-09-11T16:24:24.522Z,2.05
2018-09-11T16:26:52.586Z,2.40
2018-09-11T16:29:20.711Z,2.60
2018-09-11T16:31:48.828Z,2.80
2018-09-11T16:34:16.917Z,2.20
2018-09-11T16:36:45.029Z,2.60
2018-09-11T16:39:13.477Z,2.42
2018-09-11T16:41:41.891Z,2.47
2018-09-11T16:44:10.029Z,2.45
2018-09-11T16:46:38.643Z,2.80
2018-09-11T16:49:07.299Z,2.55
2018-09-11T16:51:35.738Z,2.30
2018-09-11T16:54:04.149Z,2.75
2018-09-11T16:56:32.267Z,2.70
2018-09-11T16:59:00.399Z,2.62
2018-09-11T17:01:28.579Z,2.70
2018-09-11T17:03:56.719Z,2.95
2018-09-11T17:06:25.061Z,2.70
2018-09-11T17:08:53.191Z,2.95
2018-09-11T17:11:21.367Z,2.80
2018-09-11T17:13:49.456Z,3.98
2018-09-11T17:16:17.634Z,3.00
2018-09-11T17:18:46.003Z,2.72
2018-09-11T17:21:14.097Z,2.62
2018-09-11T17:23:42.308Z,3.55
2018-09-11T17:26:10.442Z,3.02
2018-09-11T17:28:38.530Z,3.02
2018-09-11T17:31:06.614Z,3.50
2018-09-11T17:33:34.784Z,3.40
2018-09-11T17:36:02.905Z,4.33
2018-09-11T17:38:31.031Z,3.12
2018-09-11T17:40:59.155Z,3.83
2018-09-11T17:43:27.390Z,3.30
2018-09-11T17:45:55.515Z,3.77
2018-09-11T17:48:23.793Z,3.22
2018-09-11T17:50:52.117Z,4.33
2018-09-11T17:53:20.399Z,3.75
2018-09-11T17:55:48.578Z,3.65
2018-09-11T17:58:16.703Z,3.35
2018-09-11T18:00:44.824Z,3.92
2018-09-11T18:03:13.019Z,4.10
2018-09-11T18:05:41.123Z,3.77
2018-09-11T18:08:09.226Z,3.60
2018-09-11T18:10:37.356Z,3.80
2018-09-11T18:13:05.436Z,4.15
2018-09-11T18:15:33.550Z,3.83
2018-09-11T18:18:01.667Z,3.77
2018-09-11T18:20:29.786Z,4.42
2018-09-11T18:22:57.893Z,4.10
2018-09-11T18:25:26.007Z,3.72
2018-09-11T18:27:54.095Z,4.10
2018-09-11T18:30:22.206Z,3.80
2018-09-11T18:32:50.398Z,4.22
2018-09-11T18:35:18.486Z,4.33
2018-09-11T18:37:48.705Z,4.08
2018-09-11T18:40:16.775Z,5.30
2018-09-11T18:42:44.898Z,4.00
2018-09-11T18:45:12.997Z,4.25
2018-09-11T18:47:41.111Z,3.77
2018-09-11T18:50:09.239Z,3.98
2018-09-11T18:52:37.427Z,4.50
2018-09-11T18:55:05.546Z,4.40
2018-09-11T18:57:33.656Z,5.28
2018-09-11T19:00:01.735Z,4.33
2018-09-11T19:02:29.827Z,4.22
2018-09-11T19:04:57.952Z,4.28
2018-09-11T19:07:26.015Z,4.50
2018-09-11T19:09:54.135Z,4.92
2018-09-11T19:12:22.924Z,4.20
2018-09-11T19:14:51.014Z,4.28
2018-09-11T19:17:20.352Z,5.37
2018-09-11T19:19:48.724Z,4.67
2018-09-11T19:22:17.108Z,5.92
2018-09-11T19:24:47.635Z,4.67
2018-09-11T19:27:16.612Z,4.42
2018-09-11T19:29:46.296Z,4.37
2018-09-11T19:32:17.327Z,4.08
2018-09-11T19:34:46.039Z,4.08
2018-09-11T19:37:18.906Z,4.42
2018-09-11T19:39:47.647Z,3.80
2018-09-11T19:42:16.633Z,4.55
2018-09-11T19:45:13.921Z,4.03
2018-09-11T19:47:46.518Z,4.22
2018-09-11T19:50:26.258Z,3.87
2018-09-11T19:52:58.068Z,4.22
2018-09-11T19:55:33.142Z,4.83
2018-09-11T19:58:03.010Z,4.80
2018-09-11T20:00:32.253Z,5.83
2018-09-11T20:03:00.428Z,5.17
2018-09-11T20:05:28.543Z,5.03
2018-09-11T20:07:57.018Z,4.90
2018-09-11T20:10:25.104Z,4.33
2018-09-11T20:12:53.275Z,4.80
2018-09-11T20:15:21.607Z,4.95
2018-09-11T20:17:50.236Z,5.08
2018-09-11T20:20:18.323Z,6.17
2018-09-11T20:22:46.416Z,5.50
2018-09-11T20:25:14.552Z,4.37
2018-09-11T20:27:43.281Z,4.87
2018-09-11T20:30:11.791Z,5.58
2018-09-11T20:32:40.663Z,5.00
2018-09-11T20:35:08.838Z,4.95
2018-09-11T20:37:37.026Z,5.33
2018-09-11T20:40:07.199Z,5.37
2018-09-11T20:42:35.307Z,5.55
2018-09-11T20:45:03.541Z,6.05
2018-09-11T20:47:31.787Z,5.50
2018-09-11T20:50:00.194Z,5.42
2018-09-11T20:52:28.319Z,5.50
2018-09-11T20:54:56.427Z,5.33
2018-09-11T20:57:24.499Z,6.05
2018-09-11T20:59:52.622Z,5.70
2018-09-11T21:02:20.727Z,6.17
2018-09-11T21:04:48.941Z,5.45
2018-09-11T21:07:17.051Z,6.20
2018-09-11T21:09:45.279Z,6.50
2018-09-11T21:12:13.519Z,5.83
2018-09-11T21:14:41.771Z,6.87
2018-09-11T21:17:09.888Z,6.10
2018-09-11T21:19:37.987Z,6.58
2018-09-11T21:22:06.095Z,6.42
2018-09-11T21:24:34.215Z,6.95
2018-09-11T21:27:02.282Z,8.37
2018-09-11T21:29:30.375Z,7.37
2018-09-11T21:31:58.605Z,7.05
2018-09-11T21:34:26.702Z,6.30
2018-09-11T21:36:54.787Z,6.78
2018-09-11T21:39:22.858Z,6.40
2018-09-11T21:41:50.935Z,6.45
2018-09-11T21:44:19.068Z,6.62
2018-09-11T21:46:49.062Z,6.80
2018-09-11T21:49:17.153Z,6.92
2018-09-11T21:51:45.239Z,6.40
2018-09-11T21:54:13.319Z,7.05
2018-09-11T21:56:41.447Z,7.42
2018-09-11T21:59:09.875Z,7.45
2018-09-11T22:01:43.962Z,7.05
2018-09-11T22:04:12.250Z,8.60
2018-09-11T22:06:40.339Z,7.30
2018-09-11T22:09:09.720Z,8.28
2018-09-11T22:11:37.899Z,7.15
2018-09-11T22:14:05.995Z,7.80
2018-09-11T22:16:34.142Z,9.13
2018-09-11T22:19:09.133Z,8.95
2018-09-11T22:21:37.662Z,7.83
2018-09-11T22:24:05.807Z,8.83
2018-09-11T22:26:34.546Z,8.00
2018-09-11T22:29:02.706Z,9.48
2018-09-11T22:31:31.074Z,9.08
2018-09-11T22:33:59.201Z,8.35
2018-09-11T22:36:27.299Z,8.63
2018-09-11T22:38:55.422Z,7.65
2018-09-11T22:41:23.507Z,7.67
2018-09-11T22:43:52.042Z,8.38
2018-09-11T22:46:20.275Z,8.65
2018-09-11T22:48:48.395Z,9.67
2018-09-11T22:51:16.482Z,8.85
2018-09-11T22:53:45.454Z,9.83
2018-09-11T22:56:13.824Z,10.40
2018-09-11T22:58:41.937Z,9.30
2018-09-11T23:01:10.019Z,9.73
2018-09-11T23:03:38.092Z,9.38
2018-09-11T23:06:06.330Z,9.68
2018-09-11T23:08:34.490Z,9.78
2018-09-11T23:11:02.591Z,9.00
2018-09-11T23:13:30.739Z,9.90
2018-09-11T23:15:58.938Z,9.30
2018-09-11T23:18:27.164Z,9.43
2018-09-11T23:20:55.242Z,8.60
2018-09-11T23:23:23.351Z,9.55
2018-09-11T23:25:51.494Z,7.58
2018-09-11T23:28:19.579Z,7.70
2018-09-11T23:30:47.664Z,7.87
2018-09-11T23:33:15.888Z,9.80
2018-09-11T23:35:44.104Z,7.28
2018-09-11T23:38:12.252Z,7.35
2018-09-11T23:40:40.371Z,8.38
2018-09-11T23:43:08.468Z,8.13
2018-09-11T23:45:36.573Z,8.20
2018-09-11T23:48:04.736Z,8.30
2018-09-11T23:50:32.862Z,6.72
2018-09-11T23:53:00.948Z,8.65
2018-09-11T23:55:29.016Z,8.95
2018-09-11T23:57:57.103Z,9.10
